Time;durP1;ratioP1;P1;durP2;ratioP2;P2;SDS_P1;SDS_P2;PMS_P1;PMS_P2;Temp;Humidity;BMP_temperature;BMP_pressure;BME280_temperature;BME280_humidity;BME280_pressure;Samples;Min_cycle;Max_cycle;Signal;HPM_P1;HPM_P2
2023/11/20 00:01:44;;;;;;;15.80;10.70;;;;;;;0.34;100.00;97079.05;110156;1241;68599;-68
2023/11/20 00:04:14;;;;;;;20.60;13.70;;;;;;;0.34;100.00;97080.24;110181;1242;69526;-68
2023/11/20 00:06:45;;;;;;;23.40;13.90;;;;;;;0.33;100.00;97077.20;110163;1242;59740;-68
2023/11/20 00:09:16;;;;;;;19.80;12.80;;;;;;;0.31;100.00;97071.45;110195;1242;59660;-68
2023/11/20 00:11:50;;;;;;;20.70;13.40;;;;;;;0.30;100.00;97067.91;110266;1241;70651;-68
2023/11/20 00:14:21;;;;;;;21.00;13.40;;;;;;;0.30;100.00;97073.90;110148;1246;69445;-68
2023/11/20 00:16:52;;;;;;;26.80;15.60;;;;;;;0.29;100.00;97076.48;110191;1243;69310;-68
2023/11/20 00:19:23;;;;;;;26.20;16.20;;;;;;;0.31;100.00;97072.48;110172;1240;59758;-68
2023/11/20 00:21:56;;;;;;;29.20;17.10;;;;;;;0.32;100.00;97073.64;110193;1242;59744;-68
2023/11/20 00:24:29;;;;;;;19.90;13.40;;;;;;;0.28;100.00;97072.78;110213;1242;71354;-68
2023/11/20 00:27:03;;;;;;;24.50;15.30;;;;;;;0.24;100.00;97074.27;110230;1242;68610;-68
2023/11/20 00:29:33;;;;;;;19.10;11.80;;;;;;;0.21;100.00;97082.09;110244;1242;68171;-68
2023/11/20 00:32:05;;;;;;;19.00;12.40;;;;;;;0.22;100.00;97081.02;110238;1242;59678;-69
2023/11/20 00:34:40;;;;;;;16.60;10.90;;;;;;;0.24;100.00;97080.98;110194;1242;59744;-68
2023/11/20 00:37:11;;;;;;;19.70;11.20;;;;;;;0.27;100.00;97079.66;110285;1242;71522;-68
2023/11/20 00:39:45;;;;;;;17.30;11.00;;;;;;;0.29;100.00;97084.54;110084;1245;69586;-68
2023/11/20 00:42:17;;;;;;;16.90;11.20;;;;;;;0.31;100.00;97087.20;110195;1242;68339;-68
2023/11/20 00:44:47;;;;;;;17.10;10.80;;;;;;;0.35;100.00;97085.71;110168;1242;59745;-68
2023/11/20 00:47:23;;;;;;;17.70;12.30;;;;;;;0.36;100.00;97084.80;110233;1241;60079;-68
2023/11/20 00:49:53;;;;;;;25.40;16.20;;;;;;;0.38;100.00;97081.14;110281;1242;70821;-68
2023/11/20 00:52:26;;;;;;;27.30;17.50;;;;;;;0.35;100.00;97082.45;110207;1242;69414;-68
2023/11/20 00:54:58;;;;;;;25.50;16.60;;;;;;;0.30;100.00;97083.15;110112;1245;69175;-68
2023/11/20 00:57:32;;;;;;;30.60;18.40;;;;;;;0.31;100.00;97078.67;110144;1245;59794;-68
2023/11/20 01:00:08;;;;;;;24.40;15.60;;;;;;;0.27;100.00;97088.58;110226;1241;59705;-70
2023/11/20 01:02:47;;;;;;;28.40;17.70;;;;;;;0.28;100.00;97091.12;110231;1247;72269;-68
2023/11/20 01:05:18;;;;;;;25.60;16.30;;;;;;;0.25;100.00;97089.98;110188;1246;69295;-68
2023/11/20 01:07:49;;;;;;;32.00;19.50;;;;;;;0.26;100.00;97083.11;110198;1242;69296;-68
2023/11/20 01:10:18;;;;;;;;;;;;;;;0.27;100.00;97084.10;110116;1241;59753;-68
2023/11/20 01:12:50;;;;;;;23.90;15.40;;;;;;;0.28;100.00;97082.70;110134;1245;59656;-68
2023/11/20 01:15:21;;;;;;;27.80;15.70;;;;;;;0.29;100.00;97077.36;110161;1241;71226;-68
2023/11/20 01:17:51;;;;;;;;;;;;;;;0.29;100.00;97075.63;110182;1241;68827;-68
2023/11/20 01:20:24;;;;;;;22.00;12.70;;;;;;;0.32;100.00;97075.54;110170;1241;69270;-68
2023/11/20 01:22:54;;;;;;;24.50;14.30;;;;;;;0.34;100.00;97075.10;110143;1240;60178;-68
2023/11/20 01:25:24;;;;;;;25.30;14.70;;;;;;;0.37;100.00;97074.83;110251;1242;59805;-68
2023/11/20 01:27:54;;;;;;;22.80;13.70;;;;;;;0.40;100.00;97071.63;110105;1245;70486;-68
2023/11/20 01:30:25;;;;;;;;;;;;;;;0.43;100.00;97070.13;110209;1242;69270;-68
2023/11/20 01:32:57;;;;;;;21.60;12.30;;;;;;;0.44;100.00;97068.57;110126;1245;69326;-68
2023/11/20 01:35:27;;;;;;;25.50;15.00;;;;;;;0.45;100.00;97065.77;110210;1242;59718;-68
2023/11/20 01:37:58;;;;;;;22.00;13.70;;;;;;;0.46;100.00;97068.13;110169;1242;59639;-68
2023/11/20 01:40:28;;;;;;;21.70;12.70;;;;;;;0.48;100.00;97067.05;110158;1242;70279;-68
2023/11/20 01:42:59;;;;;;;23.70;12.80;;;;;;;0.50;100.00;97065.76;110215;1240;69147;-68
2023/11/20 01:45:34;;;;;;;21.30;14.40;;;;;;;0.52;100.00;97063.65;110206;1243;68365;-68
2023/11/20 01:48:05;;;;;;;24.90;14.70;;;;;;;0.57;100.00;97054.02;110211;1241;59727;-68
2023/11/20 01:50:35;;;;;;;29.60;17.90;;;;;;;0.59;100.00;97050.48;110132;1245;59631;-68
2023/11/20 01:53:09;;;;;;;26.00;14.60;;;;;;;0.59;100.00;97049.11;110103;1246;70623;-68
2023/11/20 01:55:41;;;;;;;26.80;16.60;;;;;;;0.58;100.00;97041.27;110229;1242;69194;-68
2023/11/20 01:58:14;;;;;;;27.00;16.50;;;;;;;0.57;100.00;97040.27;110203;1240;69349;-68
2023/11/20 02:00:45;;;;;;;25.90;17.10;;;;;;;0.56;100.00;97039.15;110109;1245;59745;-68
2023/11/20 02:03:21;;;;;;;31.10;17.20;;;;;;;0.55;100.00;97039.69;110107;1245;60084;-68
2023/11/20 02:05:57;;;;;;;25.10;16.40;;;;;;;0.55;100.00;97035.23;110199;1242;71804;-68
2023/11/20 02:08:35;;;;;;;26.60;16.50;;;;;;;0.54;100.00;97036.63;110211;1242;69127;-68
2023/11/20 02:11:14;;;;;;;24.90;15.30;;;;;;;0.55;100.00;97040.72;110208;1242;69276;-68
2023/11/20 02:13:50;;;;;;;28.70;17.40;;;;;;;0.55;100.00;97036.77;110114;1245;60154;-68
2023/11/20 02:16:22;;;;;;;28.10;17.60;;;;;;;0.57;100.00;97039.58;110088;1240;59696;-68
2023/11/20 02:18:56;;;;;;;25.60;14.80;;;;;;;0.58;100.00;97038.54;110174;1242;71508;-68
2023/11/20 02:21:31;;;;;;;25.70;15.90;;;;;;;0.59;100.00;97035.05;110112;1246;68395;-68
2023/11/20 02:24:04;;;;;;;26.20;16.60;;;;;;;0.62;100.00;97031.01;110067;1241;68541;-67
2023/11/20 02:27:06;;;;;;;22.50;15.10;;;;;;;0.64;100.00;97032.13;110197;1240;59703;-68
2023/11/20 02:29:56;;;;;;;19.30;11.50;;;;;;;0.63;100.00;97035.59;110221;1241;59676;-68
2023/11/20 02:32:28;;;;;;;17.70;11.70;;;;;;;0.66;100.00;97037.20;110190;1242;71514;-68
2023/11/20 02:35:05;;;;;;;17.20;11.00;;;;;;;0.70;100.00;97039.60;110173;1248;69220;-68
2023/11/20 02:37:37;;;;;;;15.90;10.30;;;;;;;0.74;100.00;97038.08;110215;1242;68363;-68
2023/11/20 02:40:10;;;;;;;18.90;12.00;;;;;;;0.77;100.00;97042.42;110216;1249;59764;-68
2023/11/20 02:42:41;;;;;;;14.50;8.60;;;;;;;0.79;100.00;97044.56;110227;1242;59644;-68
2023/11/20 02:45:15;;;;;;;;;;;;;;;0.81;100.00;97047.39;110237;1249;71430;-68
2023/11/20 02:47:51;;;;;;;22.10;12.70;;;;;;;0.84;100.00;97046.78;110231;1248;68402;-68
2023/11/20 02:50:30;;;;;;;18.20;12.20;;;;;;;0.87;100.00;97047.00;110100;1246;69111;-68
2023/11/20 02:53:08;;;;;;;24.00;14.60;;;;;;;0.89;100.00;97048.44;110217;1242;59674;-68
2023/11/20 02:55:45;;;;;;;20.80;13.50;;;;;;;0.90;100.00;97054.25;110137;1243;59720;-68
2023/11/20 02:58:23;;;;;;;23.10;13.40;;;;;;;0.89;100.00;97056.51;110196;1241;71412;-68
2023/11/20 03:00:57;;;;;;;22.50;13.50;;;;;;;0.90;100.00;97055.42;110118;1245;67601;-69
2023/11/20 03:03:39;;;;;;;20.90;13.00;;;;;;;0.91;100.00;97052.50;110204;1241;69153;-68
2023/11/20 03:06:11;;;;;;;23.80;14.30;;;;;;;0.92;100.00;97054.32;110205;1243;59744;-69
2023/11/20 03:08:42;;;;;;;20.70;12.20;;;;;;;0.94;100.00;97054.79;110226;1243;59782;-69
2023/11/20 03:11:14;;;;;;;27.60;16.10;;;;;;;0.96;100.00;97055.88;110239;1243;71139;-69
2023/11/20 03:13:45;;;;;;;24.20;14.00;;;;;;;0.98;100.00;97060.46;110271;1249;68257;-69
2023/11/20 03:16:17;;;;;;;21.50;13.70;;;;;;;0.98;100.00;97065.41;110272;1243;68515;-69
2023/11/20 03:18:49;;;;;;;19.30;12.30;;;;;;;0.98;100.00;97070.56;110309;1242;59678;-69
2023/11/20 03:21:22;;;;;;;18.60;10.80;;;;;;;0.99;100.00;97066.05;110374;1242;59631;-69
2023/11/20 03:23:55;;;;;;;18.60;11.50;;;;;;;1.01;100.00;97064.45;110324;1241;71292;-70
2023/11/20 03:26:29;;;;;;;21.80;13.00;;;;;;;1.00;100.00;97061.54;111112;1240;69266;-68
2023/11/20 03:29:05;;;;;;;23.40;14.20;;;;;;;0.99;100.00;97059.22;111267;1240;68512;-69
2023/11/20 03:31:40;;;;;;;20.20;12.10;;;;;;;0.99;100.00;97052.71;111230;1241;59759;-70
2023/11/20 03:34:16;;;;;;;17.70;11.60;;;;;;;0.98;100.00;97050.83;110285;1242;59658;-69
2023/11/20 03:36:48;;;;;;;19.50;12.30;;;;;;;0.96;100.00;97040.42;110244;1241;71422;-70
2023/11/20 03:39:23;;;;;;;21.50;12.20;;;;;;;0.95;100.00;97032.41;110304;1241;69222;-68
2023/11/20 03:41:54;;;;;;;21.00;12.40;;;;;;;0.93;100.00;97024.61;110245;1249;69331;-69
2023/11/20 03:44:31;;;;;;;18.40;11.70;;;;;;;0.91;100.00;97022.61;110261;1242;59663;-69
2023/11/20 03:47:04;;;;;;;21.20;13.80;;;;;;;0.90;100.00;97019.41;110177;1246;59703;-69
2023/11/20 03:49:36;;;;;;;21.80;13.60;;;;;;;0.91;100.00;97012.52;110086;1240;71026;-69
2023/11/20 03:52:07;;;;;;;19.60;12.90;;;;;;;0.92;100.00;97006.11;110176;1242;68481;-69
2023/11/20 03:54:38;;;;;;;20.90;13.30;;;;;;;0.90;100.00;97001.73;110139;1243;67528;-69
2023/11/20 03:57:09;;;;;;;19.60;12.10;;;;;;;0.88;100.00;96999.59;110230;1241;59742;-69
2023/11/20 03:59:40;;;;;;;19.10;11.20;;;;;;;0.87;100.00;96998.44;110238;1242;59655;-69
2023/11/20 04:02:11;;;;;;;21.20;12.50;;;;;;;0.87;100.00;96997.90;110228;1244;71411;-69
2023/11/20 04:04:41;;;;;;;21.60;12.40;;;;;;;0.86;100.00;96997.96;110196;1240;69261;-69
2023/11/20 04:07:14;;;;;;;19.00;12.10;;;;;;;0.86;100.00;97001.02;110177;1242;69365;-69
2023/11/20 04:09:44;;;;;;;22.50;12.60;;;;;;;0.87;100.00;97000.33;110243;1242;59921;-69
2023/11/20 04:12:16;;;;;;;17.10;10.80;;;;;;;0.88;100.00;97001.31;110211;1242;59621;-69
2023/11/20 04:14:48;;;;;;;18.50;11.40;;;;;;;0.90;100.00;97001.08;110128;1242;71417;-69
2023/11/20 04:17:21;;;;;;;14.40;9.20;;;;;;;0.91;100.00;97002.20;110115;1241;69271;-69
2023/11/20 04:19:55;;;;;;;13.90;9.30;;;;;;;0.92;100.00;97004.72;110206;1241;69025;-69
2023/11/20 04:22:26;;;;;;;14.30;8.50;;;;;;;0.95;100.00;97002.24;110280;1241;59741;-69
2023/11/20 04:24:58;;;;;;;13.00;9.00;;;;;;;0.96;100.00;96997.72;110148;1245;60134;-69
2023/11/20 04:27:32;;;;;;;12.20;8.40;;;;;;;0.99;100.00;96993.48;110207;1242;71219;-69
2023/11/20 04:30:03;;;;;;;16.00;10.30;;;;;;;0.99;100.00;96982.65;110225;1248;68552;-69
2023/11/20 04:32:34;;;;;;;12.20;9.00;;;;;;;0.99;100.00;96981.98;110178;1242;68610;-69
2023/11/20 04:35:06;;;;;;;14.50;8.60;;;;;;;0.97;100.00;96981.90;110236;1242;59805;-69
2023/11/20 04:37:38;;;;;;;11.40;8.00;;;;;;;0.98;100.00;96984.80;110200;1242;59672;-69
2023/11/20 04:40:10;;;;;;;17.30;11.10;;;;;;;0.97;100.00;96984.81;110211;1249;71431;-69
2023/11/20 04:42:40;;;;;;;13.60;9.00;;;;;;;0.98;100.00;96979.62;110212;1247;69237;-69
2023/11/20 04:45:12;;;;;;;12.90;8.90;;;;;;;0.98;100.00;96980.46;110204;1242;69283;-69
2023/11/20 04:47:44;;;;;;;13.10;8.60;;;;;;;0.99;100.00;96979.07;110209;1240;59759;-69
2023/11/20 04:50:15;;;;;;;16.40;9.60;;;;;;;1.00;100.00;96971.27;110183;1242;59667;-69
2023/11/20 04:52:46;;;;;;;14.20;8.40;;;;;;;1.03;100.00;96967.05;110237;1241;71372;-69
2023/11/20 04:55:16;;;;;;;14.10;9.30;;;;;;;1.03;100.00;96961.58;110224;1242;68538;-68
2023/11/20 04:57:46;;;;;;;14.70;9.60;;;;;;;1.01;100.00;96952.70;110218;1241;69401;-69
2023/11/20 05:00:17;;;;;;;15.80;11.20;;;;;;;1.00;100.00;96943.48;110173;1245;59727;-69
2023/11/20 05:02:47;;;;;;;18.30;12.80;;;;;;;1.00;100.00;96932.70;110204;1242;59749;-69
2023/11/20 05:05:19;;;;;;;17.20;11.30;;;;;;;0.96;100.00;96921.34;110125;1246;71413;-69
2023/11/20 05:07:50;;;;;;;16.70;10.30;;;;;;;0.93;100.00;96924.06;110064;1245;67465;-68
2023/11/20 05:10:22;;;;;;;18.10;11.80;;;;;;;0.91;100.00;96933.91;110169;1241;69155;-68
2023/11/20 05:12:53;;;;;;;19.10;11.30;;;;;;;0.92;100.00;96943.85;110189;1242;59795;-69
2023/11/20 05:15:23;;;;;;;18.30;11.40;;;;;;;0.91;100.00;96943.36;110254;1242;59601;-69
2023/11/20 05:17:53;;;;;;;14.30;9.10;;;;;;;0.90;100.00;96951.30;110203;1242;71309;-69
2023/11/20 05:20:25;;;;;;;14.10;9.50;;;;;;;0.93;100.00;96954.45;110178;1242;68155;-69
2023/11/20 05:22:55;;;;;;;13.50;8.80;;;;;;;0.97;100.00;96955.64;110213;1242;69370;-69
2023/11/20 05:25:27;;;;;;;16.90;10.00;;;;;;;1.00;100.00;96954.48;110208;1242;59667;-69
2023/11/20 05:27:58;;;;;;;14.90;10.00;;;;;;;1.02;100.00;96960.59;110180;1249;59646;-69
2023/11/20 05:30:27;;;;;;;16.80;10.10;;;;;;;1.02;100.00;96973.79;110191;1242;71460;-69
2023/11/20 05:32:57;;;;;;;16.40;10.70;;;;;;;1.01;100.00;96978.80;110212;1247;69199;-69
2023/11/20 05:35:29;;;;;;;15.70;9.40;;;;;;;1.04;100.00;96984.04;110201;1242;69286;-69
2023/11/20 05:37:59;;;;;;;;;;;;;;;1.07;100.00;96984.90;110191;1243;59660;-69
2023/11/20 05:40:28;;;;;;;15.30;9.20;;;;;;;1.08;100.00;96982.46;110229;1242;59742;-69
2023/11/20 05:42:58;;;;;;;13.30;8.10;;;;;;;1.11;100.00;96979.61;110215;1243;70597;-69
2023/11/20 05:45:28;;;;;;;11.40;8.20;;;;;;;1.13;100.00;96966.66;110220;1243;68144;-69
2023/11/20 05:47:57;;;;;;;13.40;7.70;;;;;;;1.15;100.00;96973.96;110225;1242;69842;-68
2023/11/20 05:50:27;;;;;;;12.80;7.40;;;;;;;1.18;100.00;96973.46;110192;1241;59699;-68
2023/11/20 05:52:56;;;;;;;12.90;7.50;;;;;;;1.23;100.00;96973.78;110237;1242;59650;-68
2023/11/20 05:55:29;;;;;;;12.40;7.60;;;;;;;1.22;100.00;96978.80;110211;1243;71300;-69
2023/11/20 05:58:02;;;;;;;14.40;9.80;;;;;;;1.23;100.00;96981.65;110188;1241;69285;-70
2023/11/20 06:00:32;;;;;;;17.60;10.20;;;;;;;1.23;100.00;96983.56;110228;1241;69355;-69
2023/11/20 06:03:02;;;;;;;18.30;10.50;;;;;;;1.21;100.00;96992.07;110267;1242;60093;-69
2023/11/20 06:05:32;;;;;;;14.60;9.10;;;;;;;1.18;100.00;96995.26;110221;1241;59737;-69
2023/11/20 06:08:02;;;;;;;;;;;;;;;1.20;100.00;96997.74;110242;1242;71378;-69
2023/11/20 06:10:30;;;;;;;11.00;7.60;;;;;;;1.23;100.00;97003.64;110221;1242;69911;-68
2023/11/20 06:13:00;;;;;;;13.00;8.20;;;;;;;1.25;100.00;97006.46;110230;1242;69818;-69
2023/11/20 06:15:31;;;;;;;13.00;7.40;;;;;;;1.27;100.00;97007.95;110206;1242;59678;-69
2023/11/20 06:18:00;;;;;;;12.90;7.70;;;;;;;1.30;100.00;97001.83;110221;1242;59729;-69
2023/11/20 06:20:31;;;;;;;13.80;8.30;;;;;;;1.33;100.00;96998.77;110250;1248;71977;-69
2023/11/20 06:23:01;;;;;;;12.30;8.00;;;;;;;1.35;100.00;96996.63;110205;1242;69574;-69
2023/11/20 06:25:30;;;;;;;12.20;8.20;;;;;;;1.37;100.00;96997.21;110218;1249;70337;-69
2023/11/20 06:28:00;;;;;;;19.80;12.20;;;;;;;1.38;100.00;97003.01;110201;1241;59744;-69
2023/11/20 06:30:30;;;;;;;19.70;11.90;;;;;;;1.40;100.00;97003.79;110247;1242;59686;-68
2023/11/20 06:33:00;;;;;;;15.90;11.00;;;;;;;1.43;100.00;97005.23;110232;1242;71463;-69
2023/11/20 06:35:31;;;;;;;19.20;12.20;;;;;;;1.46;100.00;97003.00;110214;1242;69812;-68
2023/11/20 06:38:01;;;;;;;21.00;12.80;;;;;;;1.47;100.00;97005.19;110158;1240;68796;-69
2023/11/20 06:40:31;;;;;;;18.80;11.60;;;;;;;1.48;100.00;97001.72;110169;1241;59753;-69
2023/11/20 06:43:02;;;;;;;19.10;13.30;;;;;;;1.49;100.00;97005.95;110202;1241;59696;-69
2023/11/20 06:45:31;;;;;;;16.10;11.50;;;;;;;1.50;100.00;97007.65;110200;1242;70939;-69
2023/11/20 06:48:00;;;;;;;15.90;10.10;;;;;;;1.48;100.00;97008.25;110207;1249;69267;-69
2023/11/20 06:50:30;;;;;;;16.50;10.70;;;;;;;1.45;100.00;97012.33;110182;1243;69266;-68
2023/11/20 06:53:02;;;;;;;13.30;8.90;;;;;;;1.43;100.00;97007.61;110146;1241;59693;-69
2023/11/20 06:55:32;;;;;;;15.20;10.40;;;;;;;1.43;100.00;97005.20;110220;1242;59739;-69
2023/11/20 06:58:01;;;;;;;16.60;10.20;;;;;;;1.43;100.00;97001.73;110254;1243;71399;-68
2023/11/20 07:00:31;;;;;;;16.10;9.00;;;;;;;1.45;100.00;97003.39;110191;1243;67416;-69
2023/11/20 07:03:00;;;;;;;17.60;11.40;;;;;;;1.48;100.00;96996.23;110211;1247;69277;-69
2023/11/20 07:05:30;;;;;;;16.70;11.20;;;;;;;1.52;100.00;96993.81;110242;1242;59708;-68
2023/11/20 07:08:06;;;;;;;14.90;10.00;;;;;;;1.57;100.00;96997.23;110253;1242;59644;-69
2023/11/20 07:10:37;;;;;;;15.10;9.50;;;;;;;1.62;100.00;96998.89;110202;1240;71377;-69
2023/11/20 07:13:06;;;;;;;13.70;9.40;;;;;;;1.68;100.00;97003.27;110208;1243;70179;-68
2023/11/20 07:15:35;;;;;;;11.20;7.70;;;;;;;1.72;100.00;97005.13;110096;1244;69877;-67
2023/11/20 07:18:08;;;;;;;13.20;9.30;;;;;;;1.75;100.00;97005.16;110246;1243;59696;-66
2023/11/20 07:20:38;;;;;;;10.30;7.90;;;;;;;1.81;100.00;97008.89;110243;1249;59672;-67
2023/11/20 07:23:08;;;;;;;11.10;7.70;;;;;;;1.85;100.00;97001.65;110195;1242;71913;-68
2023/11/20 07:25:37;;;;;;;10.90;8.00;;;;;;;1.87;100.00;96999.64;110171;1242;69223;-67
2023/11/20 07:28:07;;;;;;;14.20;9.60;;;;;;;1.89;100.00;96997.50;110235;1242;69893;-68
2023/11/20 07:30:37;;;;;;;15.00;9.80;;;;;;;1.91;100.00;96993.46;110157;1241;59699;-67
2023/11/20 07:33:06;;;;;;;;;;;;;;;1.90;100.00;96993.52;110195;1243;59730;-69
2023/11/20 07:35:37;;;;;;;12.60;8.60;;;;;;;1.92;100.00;96991.36;110137;1244;71452;-67
2023/11/20 07:38:08;;;;;;;14.10;8.90;;;;;;;1.91;100.00;96992.27;110113;1244;68470;-68
2023/11/20 07:40:37;;;;;;;;;;;;;;;1.91;100.00;96989.85;110167;1241;68566;-67
2023/11/20 07:43:08;;;;;;;10.50;7.40;;;;;;;1.93;100.00;96993.91;110230;1242;59712;-67
2023/11/20 07:45:38;;;;;;;12.20;7.80;;;;;;;1.96;100.00;96998.23;110165;1242;59681;-67
2023/11/20 07:48:09;;;;;;;11.30;7.60;;;;;;;1.96;100.00;96999.07;110175;1242;71973;-67
2023/11/20 07:50:41;;;;;;;13.20;8.60;;;;;;;1.96;100.00;96997.36;110186;1241;69313;-67
2023/11/20 07:53:11;;;;;;;10.90;8.10;;;;;;;1.97;100.00;96999.21;110173;1241;68507;-67
2023/11/20 07:55:40;;;;;;;12.80;8.20;;;;;;;2.03;100.00;97002.55;110165;1241;59706;-67
2023/11/20 07:58:09;;;;;;;8.80;6.40;;;;;;;2.10;100.00;97005.02;110203;1241;59753;-67
2023/11/20 08:00:38;;;;;;;9.40;7.10;;;;;;;2.16;100.00;97002.50;110177;1241;70645;-66
2023/11/20 08:03:08;;;;;;;12.80;7.70;;;;;;;2.18;100.00;97003.44;110204;1242;69852;-66
2023/11/20 08:05:39;;;;;;;10.40;7.50;;;;;;;2.21;100.00;97001.04;110167;1242;67686;-66
2023/11/20 08:08:18;;;;;;;8.30;6.30;;;;;;;2.25;100.00;97002.39;110146;1240;59664;-66
2023/11/20 08:10:47;;;;;;;12.80;8.60;;;;;;;2.32;100.00;97003.80;110167;1240;59695;-66
2023/11/20 08:13:18;;;;;;;12.50;8.40;;;;;;;2.35;100.00;97009.00;110170;1243;70481;-68
2023/11/20 08:15:48;;;;;;;11.20;7.60;;;;;;;2.40;100.00;97009.27;110197;1241;68855;-67
2023/11/20 08:18:20;;;;;;;9.30;7.10;;;;;;;2.48;100.00;97003.59;110163;1242;69184;-67
2023/11/20 08:20:51;;;;;;;11.60;7.40;;;;;;;2.54;100.00;97005.20;110180;1242;59801;-67
2023/11/20 08:23:21;;;;;;;16.90;12.00;;;;;;;2.64;100.00;97007.80;110195;1242;59697;-67
2023/11/20 08:25:50;;;;;;;11.90;8.40;;;;;;;2.72;100.00;97006.92;110150;1241;71320;-67
2023/11/20 08:28:20;;;;;;;11.70;7.90;;;;;;;2.80;100.00;96999.65;110198;1242;69243;-67
2023/11/20 08:30:50;;;;;;;12.10;8.90;;;;;;;2.88;100.00;96994.66;110194;1242;68561;-68
2023/11/20 08:33:19;;;;;;;9.80;7.20;;;;;;;3.07;100.00;96998.84;110315;1241;59603;-68
2023/11/20 08:35:49;;;;;;;11.10;9.80;;;;;;;3.25;100.00;97003.48;110235;1242;59763;-67
2023/11/20 08:38:19;;;;;;;11.60;8.10;;;;;;;3.36;100.00;97006.17;110239;1245;71384;-67
2023/11/20 08:40:50;;;;;;;10.30;8.10;;;;;;;3.42;100.00;97008.80;110223;1242;68405;-67
2023/11/20 08:43:19;;;;;;;;;;;;;;;3.51;100.00;97004.73;110285;1248;69219;-68
2023/11/20 08:45:49;;;;;;;10.90;7.60;;;;;;;3.45;100.00;97008.10;110192;1241;59756;-68
2023/11/20 08:48:31;;;;;;;9.80;7.00;;;;;;;3.50;100.00;97008.94;110266;1241;59728;-68
2023/11/20 08:51:01;;;;;;;10.10;7.40;;;;;;;3.49;100.00;97010.02;110163;1241;71424;-68
2023/11/20 08:53:31;;;;;;;9.70;7.80;;;;;;;3.45;100.00;97013.31;110251;1242;68822;-67
2023/11/20 08:56:01;;;;;;;9.90;6.90;;;;;;;3.39;100.00;97012.08;110210;1242;68510;-68
2023/11/20 08:58:31;;;;;;;9.40;6.80;;;;;;;3.37;100.00;97008.04;110198;1245;59740;-68
2023/11/20 09:00:59;;;;;;;8.90;7.00;;;;;;;3.40;100.00;97010.63;110196;1242;59712;-67
2023/11/20 09:03:30;;;;;;;8.00;5.60;;;;;;;3.42;100.00;97012.79;110222;1242;71952;-67
2023/11/20 09:06:00;;;;;;;8.00;5.70;;;;;;;3.43;100.00;97012.58;110189;1241;69203;-68
2023/11/20 09:08:29;;;;;;;8.30;6.70;;;;;;;3.44;100.00;97011.63;110188;1241;68499;-67
2023/11/20 09:10:58;;;;;;;7.80;5.10;;;;;;;3.41;100.00;97009.02;110228;1241;59705;-68
2023/11/20 09:13:30;;;;;;;8.00;5.60;;;;;;;3.37;100.00;97006.33;110243;1243;59678;-67
2023/11/20 09:16:00;;;;;;;8.20;6.00;;;;;;;3.34;100.00;97006.30;110194;1241;71399;-68
2023/11/20 09:18:29;;;;;;;10.30;7.20;;;;;;;3.32;100.00;97004.48;110223;1242;68317;-67
2023/11/20 09:21:02;;;;;;;8.80;6.60;;;;;;;3.30;100.00;97003.02;110203;1242;69271;-67
2023/11/20 09:23:31;;;;;;;8.40;6.60;;;;;;;3.34;100.00;97003.00;110222;1242;59757;-68
2023/11/20 09:26:00;;;;;;;9.50;6.50;;;;;;;3.42;100.00;97006.39;110232;1241;59747;-68
2023/11/20 09:28:31;;;;;;;10.80;8.20;;;;;;;3.47;100.00;97008.54;110259;1243;71994;-68
2023/11/20 09:31:02;;;;;;;10.60;8.50;;;;;;;3.51;100.00;97001.96;110229;1240;69199;-68
2023/11/20 09:33:32;;;;;;;11.10;7.90;;;;;;;3.52;100.00;97001.58;110252;1247;68566;-68
2023/11/20 09:36:01;;;;;;;11.30;8.80;;;;;;;3.51;100.00;96993.71;110232;1240;59750;-68
2023/11/20 09:38:30;;;;;;;10.60;7.70;;;;;;;3.52;100.00;96988.64;110266;1242;59761;-68
2023/11/20 09:41:01;;;;;;;11.70;8.70;;;;;;;3.54;100.00;96982.88;110201;1241;71229;-68
2023/11/20 09:43:31;;;;;;;11.60;8.60;;;;;;;3.59;100.00;96980.20;110212;1243;68781;-68
2023/11/20 09:46:07;;;;;;;11.10;8.70;;;;;;;3.66;100.00;96981.42;110237;1241;69877;-68
2023/11/20 09:48:39;;;;;;;12.90;9.00;;;;;;;3.69;100.00;96986.56;110249;1241;59743;-68
2023/11/20 09:51:10;;;;;;;9.50;7.40;;;;;;;3.69;100.00;96999.51;110166;1241;59686;-68
2023/11/20 09:53:43;;;;;;;11.30;7.70;;;;;;;3.66;100.00;97007.06;110196;1243;71978;-67
2023/11/20 09:56:13;;;;;;;11.40;8.50;;;;;;;3.66;100.00;97007.61;110211;1241;69036;-68
2023/11/20 09:58:43;;;;;;;9.80;6.80;;;;;;;3.67;100.00;97000.98;110172;1242;69987;-68
2023/11/20 10:01:13;;;;;;;9.50;7.20;;;;;;;3.67;100.00;96996.70;110201;1242;59698;-68
2023/11/20 10:03:46;;;;;;;9.60;6.90;;;;;;;3.65;100.00;96997.14;110226;1242;59698;-68
2023/11/20 10:06:21;;;;;;;10.00;6.80;;;;;;;3.66;100.00;96993.63;110185;1246;70654;-68
2023/11/20 10:08:51;;;;;;;9.60;7.40;;;;;;;3.69;100.00;96990.05;110221;1242;69256;-68
2023/11/20 10:11:22;;;;;;;9.00;6.80;;;;;;;3.68;100.00;96993.00;110272;1249;70107;-68
2023/11/20 10:13:52;;;;;;;10.30;6.80;;;;;;;3.71;100.00;96991.45;110247;1241;59744;-68
2023/11/20 10:16:23;;;;;;;9.50;7.00;;;;;;;3.76;100.00;96985.19;110242;1241;59705;-67
2023/11/20 10:18:52;;;;;;;7.60;5.30;;;;;;;3.81;100.00;96981.49;110235;1242;71717;-67
2023/11/20 10:21:22;;;;;;;7.70;5.90;;;;;;;3.82;100.00;96977.10;110247;1244;67529;-68
2023/11/20 10:23:54;;;;;;;12.60;9.30;;;;;;;3.86;100.00;96973.09;110242;1241;69177;-68
2023/11/20 10:26:24;;;;;;;10.40;6.90;;;;;;;3.88;100.00;96975.62;110206;1242;59760;-68
2023/11/20 10:28:58;;;;;;;9.80;6.90;;;;;;;3.88;100.00;96980.23;110222;1242;59705;-68
2023/11/20 10:31:27;;;;;;;8.30;5.80;;;;;;;3.88;100.00;96979.35;110256;1241;70402;-69
2023/11/20 10:34:09;;;;;;;9.50;6.40;;;;;;;3.91;100.00;96974.24;110256;1242;69807;-68
2023/11/20 10:36:39;;;;;;;9.30;6.10;;;;;;;3.93;100.00;96975.86;110266;1242;68541;-68
2023/11/20 10:39:12;;;;;;;10.70;7.90;;;;;;;3.97;100.00;96970.98;110245;1242;59685;-68
2023/11/20 10:41:43;;;;;;;9.60;6.90;;;;;;;3.96;100.00;96972.23;110295;1241;59694;-68
2023/11/20 10:44:14;;;;;;;10.00;7.70;;;;;;;3.98;100.00;96966.61;110242;1241;71300;-69
2023/11/20 10:46:44;;;;;;;10.70;8.10;;;;;;;3.97;100.00;96970.45;110158;1242;69208;-68
2023/11/20 10:49:20;;;;;;;12.70;8.60;;;;;;;3.99;100.00;96975.71;110223;1242;69311;-68
2023/11/20 10:51:56;;;;;;;13.00;9.20;;;;;;;3.96;100.00;96973.09;110230;1241;59696;-69
2023/11/20 10:54:34;;;;;;;11.70;8.30;;;;;;;4.01;100.00;96967.83;110249;1242;59633;-68
2023/11/20 10:57:06;;;;;;;12.00;8.40;;;;;;;4.00;100.00;96965.63;110149;1246;71421;-68
2023/11/20 10:59:36;;;;;;;12.00;8.20;;;;;;;4.00;100.00;96965.48;109747;1242;602564;-68
2023/11/20 11:02:10;;;;;;;12.60;8.60;;;;;;;4.03;100.00;96954.06;110241;1242;68509;-68
2023/11/20 11:04:40;;;;;;;10.40;8.20;;;;;;;4.09;100.00;96952.73;110272;1242;59734;-68
2023/11/20 11:07:14;;;;;;;13.10;9.50;;;;;;;4.11;100.00;96952.14;110239;1242;59966;-68
2023/11/20 11:09:44;;;;;;;11.90;9.10;;;;;;;4.15;100.00;96953.42;110240;1242;70822;-68
2023/11/20 11:12:15;;;;;;;14.70;10.80;;;;;;;4.21;100.00;96955.18;110258;1242;69397;-68
2023/11/20 11:14:44;;;;;;;13.30;9.90;;;;;;;4.16;100.00;96952.87;110267;1241;70225;-68
2023/11/20 11:17:21;;;;;;;16.10;9.90;;;;;;;4.11;100.00;96951.78;110318;1240;59742;-68
2023/11/20 11:20:13;;;;;;;13.30;10.10;;;;;;;4.17;100.00;96943.89;110240;1243;59694;-68
2023/11/20 11:22:59;;;;;;;15.70;11.40;;;;;;;4.10;100.00;96951.81;110169;1242;71648;-68
2023/11/20 11:25:29;;;;;;;16.00;11.40;;;;;;;4.07;100.00;96949.90;110196;1241;68440;-68
2023/11/20 11:28:02;;;;;;;16.20;11.30;;;;;;;4.10;100.00;96947.51;110198;1242;69420;-68
2023/11/20 11:30:37;;;;;;;15.40;11.30;;;;;;;4.02;100.00;96944.15;110188;1242;59631;-68
2023/11/20 11:33:41;;;;;;;15.60;10.30;;;;;;;4.00;100.00;96948.23;110241;1241;59690;-68
2023/11/20 11:36:48;;;;;;;14.20;10.50;;;;;;;4.08;100.00;96942.95;110190;1241;71806;-68
2023/11/20 11:39:29;;;;;;;13.90;10.70;;;;;;;4.12;100.00;96934.67;110210;1243;70051;-68